Time;durP1;ratioP1;P1;durP2;ratioP2;P2;SDS_P1;SDS_P2;PMS_P1;PMS_P2;Temp;Humidity;BMP_temperature;BMP_pressure;BME280_temperature;BME280_humidity;BME280_pressure;Samples;Min_cycle;Max_cycle;Signal;HPM_P1;HPM_P2
2023/04/11 00:01:55;;;;;;;4.35;4.05;;;11.20;99.90;;;;;;5075305;28;20285;-68
2023/04/11 00:04:24;;;;;;;3.83;3.53;;;11.20;99.90;;;;;;5076364;28;20305;-68
2023/04/11 00:06:51;;;;;;;4.10;3.80;;;11.20;99.90;;;;;;5075771;28;20850;-66
2023/04/11 00:09:18;;;;;;;3.72;3.42;;;11.20;99.90;;;;;;5076411;28;20626;-68
2023/04/11 00:11:45;;;;;;;4.15;3.85;;;11.20;99.90;;;;;;5075561;28;20229;-69
2023/04/11 00:14:11;;;;;;;3.70;3.50;;;11.20;99.90;;;;;;5074333;28;20303;-68
2023/04/11 00:16:40;;;;;;;3.53;3.33;;;11.20;99.90;;;;;;5077249;28;20696;-67
2023/04/11 00:19:09;;;;;;;3.83;3.53;;;11.20;99.90;;;;;;5072667;28;20312;-67
2023/04/11 00:21:38;;;;;;;3.40;3.20;;;11.10;99.90;;;;;;5074053;28;20301;-68
2023/04/11 00:24:06;;;;;;;4.90;4.40;;;11.20;99.90;;;;;;5078251;28;20262;-67
2023/04/11 00:26:33;;;;;;;4.28;3.40;;;11.10;99.90;;;;;;5075510;28;20229;-66
2023/04/11 00:29:00;;;;;;;4.25;3.95;;;11.10;99.90;;;;;;5075545;28;20252;-67
2023/04/11 00:31:27;;;;;;;4.03;3.72;;;11.10;99.90;;;;;;5074736;28;20559;-68
2023/04/11 00:33:54;;;;;;;4.63;4.22;;;11.00;99.90;;;;;;5073867;28;20198;-67
2023/04/11 00:36:22;;;;;;;4.70;4.25;;;11.00;99.90;;;;;;5074988;28;20301;-67
2023/04/11 00:38:49;;;;;;;4.80;4.40;;;10.90;99.90;;;;;;5077481;28;20257;-68
2023/04/11 00:41:16;;;;;;;5.00;4.60;;;10.90;99.90;;;;;;5078491;28;20280;-68
2023/04/11 00:43:43;;;;;;;3.90;3.60;;;10.90;99.90;;;;;;5077451;28;21385;-67
2023/04/11 00:46:10;;;;;;;4.85;4.45;;;10.90;99.90;;;;;;5075584;28;20201;-67
2023/04/11 00:48:37;;;;;;;4.72;4.32;;;10.90;99.90;;;;;;5078548;28;20213;-68
2023/04/11 00:51:04;;;;;;;5.50;4.90;;;10.90;99.90;;;;;;5077938;28;20217;-69
2023/04/11 00:53:32;;;;;;;5.70;5.20;;;10.90;99.90;;;;;;5076311;28;20284;-66
2023/04/11 00:55:59;;;;;;;5.82;5.32;;;10.80;99.90;;;;;;5078630;28;20242;-67
2023/04/11 00:58:27;;;;;;;4.95;4.55;;;10.80;99.90;;;;;;5080132;28;20309;-67
2023/04/11 01:00:54;;;;;;;4.97;4.57;;;10.70;99.90;;;;;;5079033;28;20225;-67
2023/04/11 01:03:21;;;;;;;4.35;3.95;;;10.70;99.90;;;;;;5082527;28;20229;-67
2023/04/11 01:05:51;;;;;;;4.45;4.05;;;10.70;99.90;;;;;;5076730;28;20205;-68
2023/04/11 01:08:19;;;;;;;4.72;4.32;;;10.70;99.90;;;;;;5081540;28;20824;-67
2023/04/11 01:10:47;;;;;;;4.35;3.95;;;10.70;99.90;;;;;;5079983;28;20289;-67
2023/04/11 01:13:14;;;;;;;4.70;4.30;;;10.70;99.90;;;;;;5082311;28;20197;-68
2023/04/11 01:15:41;;;;;;;4.78;4.35;;;10.70;99.90;;;;;;5078950;28;20201;-68
2023/04/11 01:18:08;;;;;;;4.10;3.80;;;10.70;99.90;;;;;;5079784;28;20213;-69
2023/04/11 01:20:37;;;;;;;4.28;3.95;;;10.70;99.90;;;;;;5078996;28;20205;-67
2023/04/11 01:23:05;;;;;;;5.18;4.68;;;10.60;99.90;;;;;;5082769;28;20208;-67
2023/04/11 01:25:34;;;;;;;4.45;4.05;;;10.60;99.90;;;;;;5076655;28;20589;-68
2023/04/11 01:28:02;;;;;;;4.68;4.28;;;10.60;99.90;;;;;;5078382;28;20284;-67
2023/04/11 01:30:29;;;;;;;4.63;4.30;;;10.60;99.90;;;;;;5081236;28;20584;-68
2023/04/11 01:32:55;;;;;;;4.93;4.53;;;10.60;99.90;;;;;;5077109;28;20309;-66
2023/04/11 01:35:23;;;;;;;4.65;4.25;;;10.60;99.90;;;;;;5081508;28;20621;-68
2023/04/11 01:37:50;;;;;;;4.43;4.03;;;10.60;99.90;;;;;;5082177;28;20225;-68
2023/04/11 01:40:20;;;;;;;4.47;4.07;;;10.60;99.90;;;;;;5080967;28;20341;-67
2023/04/11 01:42:49;;;;;;;4.75;4.35;;;10.60;99.90;;;;;;5076684;28;20632;-67
2023/04/11 01:45:16;;;;;;;5.10;4.70;;;10.60;99.90;;;;;;5079329;28;20248;-68
2023/04/11 01:47:43;;;;;;;5.28;4.78;;;10.50;99.90;;;;;;5076856;28;20823;-67
2023/04/11 01:50:11;;;;;;;5.28;4.78;;;10.50;99.90;;;;;;5077458;28;20296;-68
2023/04/11 01:52:38;;;;;;;4.30;4.00;;;10.50;99.90;;;;;;5078026;28;20289;-68
2023/04/11 01:55:05;;;;;;;4.15;3.85;;;10.60;99.90;;;;;;5079247;28;20247;-68
2023/04/11 01:57:33;;;;;;;4.22;3.92;;;10.60;99.90;;;;;;5076943;28;20233;-67
2023/04/11 02:00:01;;;;;;;4.22;3.92;;;10.60;99.90;;;;;;5079361;28;20242;-68
2023/04/11 02:02:28;;;;;;;4.05;3.65;;;10.60;99.90;;;;;;5077797;28;20198;-69
2023/04/11 02:04:55;;;;;;;4.70;4.38;;;10.60;99.90;;;;;;5076620;28;20287;-67
2023/04/11 02:07:22;;;;;;;4.03;3.72;;;10.60;99.90;;;;;;5076422;28;20317;-67
2023/04/11 02:09:49;;;;;;;4.63;4.22;;;10.50;99.90;;;;;;5076622;28;20193;-69
2023/04/11 02:12:16;;;;;;;4.45;4.10;;;10.60;99.90;;;;;;5079662;28;20312;-68
2023/04/11 02:14:45;;;;;;;3.83;3.53;;;10.60;99.90;;;;;;5081032;28;20198;-67
2023/04/11 02:17:13;;;;;;;4.50;4.10;;;10.70;99.90;;;;;;5077872;28;20310;-68
2023/04/11 02:19:40;;;;;;;3.90;3.60;;;10.70;99.90;;;;;;5077811;28;20300;-67
2023/04/11 02:22:08;;;;;;;4.22;3.83;;;10.70;99.90;;;;;;5075536;28;20676;-67
2023/04/11 02:24:35;;;;;;;3.63;3.33;;;10.60;99.90;;;;;;5079155;28;20225;-67
2023/04/11 02:27:03;;;;;;;4.00;3.70;;;10.70;99.90;;;;;;5075001;28;20234;-67
2023/04/11 02:29:30;;;;;;;4.07;3.78;;;10.70;99.90;;;;;;5079445;28;20248;-67
2023/04/11 02:31:57;;;;;;;4.05;3.67;;;10.70;99.90;;;;;;5076379;28;20326;-68
2023/04/11 02:34:25;;;;;;;4.25;3.95;;;10.70;99.90;;;;;;5078117;28;20229;-68
2023/04/11 02:36:52;;;;;;;4.10;3.80;;;10.70;99.90;;;;;;5071592;28;20289;-67
2023/04/11 02:39:22;;;;;;;4.03;3.72;;;10.60;99.90;;;;;;5080528;28;20225;-68
2023/04/11 02:41:49;;;;;;;3.58;3.28;;;10.60;99.90;;;;;;5077835;28;20231;-67
2023/04/11 02:44:17;;;;;;;4.22;3.92;;;10.60;99.90;;;;;;5077805;28;20288;-68
2023/04/11 02:46:44;;;;;;;4.10;3.80;;;10.60;99.90;;;;;;5077659;28;20297;-67
2023/04/11 02:49:11;;;;;;;4.30;3.95;;;10.60;99.90;;;;;;5077861;28;20307;-68
2023/04/11 02:51:40;;;;;;;4.00;3.70;;;10.60;99.90;;;;;;5081409;28;20293;-68
2023/04/11 02:54:07;;;;;;;4.90;4.50;;;10.50;99.90;;;;;;5079221;28;20198;-67
2023/04/11 02:56:36;;;;;;;4.40;4.00;;;10.40;99.90;;;;;;5081081;28;20297;-68
2023/04/11 02:59:03;;;;;;;5.22;4.82;;;10.40;99.90;;;;;;5079673;28;20217;-67
2023/04/11 03:01:30;;;;;;;4.20;3.90;;;10.40;99.90;;;;;;5078316;28;20236;-69
2023/04/11 03:03:57;;;;;;;4.75;4.35;;;10.40;99.90;;;;;;5079456;28;20202;-68
2023/04/11 03:06:25;;;;;;;4.50;4.15;;;10.30;99.90;;;;;;5078531;28;20251;-68
2023/04/11 03:08:54;;;;;;;5.15;4.75;;;10.30;99.90;;;;;;5076244;28;20229;-68
2023/04/11 03:11:21;;;;;;;4.70;4.30;;;10.30;99.90;;;;;;5075319;28;20206;-67
2023/04/11 03:13:48;;;;;;;4.57;4.18;;;10.20;99.90;;;;;;5078118;28;20213;-72
2023/04/11 03:16:15;;;;;;;4.20;3.90;;;10.20;99.90;;;;;;5076368;28;20818;-67
2023/04/11 03:18:42;;;;;;;4.43;4.13;;;10.20;99.90;;;;;;5077843;28;20253;-67
2023/04/11 03:21:10;;;;;;;4.15;3.83;;;10.10;99.90;;;;;;5077024;28;20325;-67
2023/04/11 03:23:37;;;;;;;4.00;3.70;;;10.20;99.90;;;;;;5081018;28;20201;-67
2023/04/11 03:26:06;;;;;;;3.80;3.55;;;10.20;99.90;;;;;;5076924;28;20683;-67
2023/04/11 03:28:33;;;;;;;3.90;3.60;;;10.30;99.90;;;;;;5078161;28;20305;-67
2023/04/11 03:31:00;;;;;;;4.10;3.80;;;10.30;99.90;;;;;;5076155;28;20197;-67
2023/04/11 03:33:27;;;;;;;3.65;3.35;;;10.30;99.90;;;;;;5078180;28;20301;-68
2023/04/11 03:35:54;;;;;;;4.20;3.90;;;10.40;99.90;;;;;;5075914;28;20302;-67
2023/04/11 03:38:20;;;;;;;4.25;3.95;;;10.40;99.90;;;;;;5077419;28;20226;-67
2023/04/11 03:40:47;;;;;;;4.18;3.88;;;10.30;99.90;;;;;;5076235;28;20304;-69
2023/04/11 03:43:16;;;;;;;4.47;4.07;;;10.30;99.90;;;;;;5075408;28;20221;-67
2023/04/11 03:45:43;;;;;;;4.13;3.83;;;10.20;99.90;;;;;;5075705;28;20198;-71
2023/04/11 03:48:10;;;;;;;3.92;3.63;;;10.20;99.90;;;;;;5076300;28;20311;-67
2023/04/11 03:50:37;;;;;;;4.38;3.97;;;10.20;99.90;;;;;;5074639;28;20609;-67
2023/04/11 03:53:04;;;;;;;4.13;3.80;;;10.10;99.90;;;;;;5078089;28;20228;-67
2023/04/11 03:55:31;;;;;;;4.45;4.07;;;10.20;99.90;;;;;;5077701;28;20280;-66
2023/04/11 03:57:58;;;;;;;4.07;3.78;;;10.10;99.90;;;;;;5074716;28;20233;-67
2023/04/11 04:00:27;;;;;;;4.05;3.60;;;10.20;99.90;;;;;;5076662;28;20304;-67
2023/04/11 04:02:54;;;;;;;4.50;4.20;;;10.20;99.90;;;;;;5076864;28;20285;-68
2023/04/11 04:05:21;;;;;;;4.18;3.88;;;10.20;99.90;;;;;;5075027;28;20209;-67
2023/04/11 04:07:48;;;;;;;4.57;4.18;;;10.20;99.90;;;;;;5069594;28;20778;-67
2023/04/11 04:10:15;;;;;;;4.13;3.83;;;10.20;99.90;;;;;;5075528;28;20301;-68
2023/04/11 04:12:41;;;;;;;5.07;4.68;;;10.20;99.90;;;;;;5076622;28;20225;-68
2023/04/11 04:15:10;;;;;;;4.10;3.80;;;10.20;99.90;;;;;;5080215;28;20258;-67
2023/04/11 04:17:38;;;;;;;4.45;4.05;;;10.20;99.90;;;;;;5081823;28;20218;-67
2023/04/11 04:20:09;;;;;;;4.20;3.90;;;10.10;99.90;;;;;;5087946;28;20242;-69
2023/04/11 04:22:36;;;;;;;4.60;4.20;;;10.10;99.90;;;;;;5088012;28;20289;-67
2023/04/11 04:25:04;;;;;;;4.80;4.40;;;10.00;99.90;;;;;;5089225;28;20255;-69
2023/04/11 04:27:31;;;;;;;5.68;4.32;;;10.00;99.90;;;;;;5087971;28;20220;-70
2023/04/11 04:29:58;;;;;;;4.57;4.18;;;10.00;99.90;;;;;;5089251;28;20221;-67
2023/04/11 04:32:27;;;;;;;4.57;4.18;;;10.00;99.90;;;;;;5093065;28;20229;-69
2023/04/11 04:34:56;;;;;;;4.63;4.32;;;10.00;99.90;;;;;;5089778;28;20207;-68
2023/04/11 04:37:25;;;;;;;4.50;4.10;;;10.00;99.90;;;;;;5089016;28;20328;-65
2023/04/11 04:39:54;;;;;;;4.10;3.80;;;10.00;99.90;;;;;;5084421;28;20210;-68
2023/04/11 04:42:22;;;;;;;4.07;3.78;;;10.00;99.90;;;;;;5080625;28;20209;-68
2023/04/11 04:44:50;;;;;;;4.10;3.80;;;10.00;99.90;;;;;;5077851;28;20201;-67
2023/04/11 04:47:17;;;;;;;4.60;4.22;;;10.00;99.90;;;;;;5074715;28;20252;-68
2023/04/11 04:49:44;;;;;;;4.40;4.10;;;10.00;99.90;;;;;;5079124;28;20280;-68
2023/04/11 04:52:13;;;;;;;4.47;4.07;;;10.00;99.90;;;;;;5077283;28;20297;-69
2023/04/11 04:54:40;;;;;;;4.90;4.50;;;9.90;99.90;;;;;;5079950;28;20220;-68
2023/04/11 04:57:07;;;;;;;5.72;5.22;;;9.80;99.90;;;;;;5076283;28;20218;-67
2023/04/11 04:59:35;;;;;;;5.15;4.75;;;9.60;99.90;;;;;;5076840;28;20291;-68
2023/04/11 05:02:02;;;;;;;5.45;5.05;;;9.50;99.90;;;;;;5077984;28;21172;-69
2023/04/11 05:04:30;;;;;;;4.90;4.50;;;9.40;99.90;;;;;;5076193;28;20293;-68
2023/04/11 05:06:57;;;;;;;4.47;4.18;;;9.50;99.90;;;;;;5074292;28;20202;-67
2023/04/11 05:09:26;;;;;;;3.95;3.55;;;9.50;99.90;;;;;;5077919;28;20668;-68
2023/04/11 05:11:53;;;;;;;4.35;4.05;;;9.60;99.90;;;;;;5078140;28;20672;-68
2023/04/11 05:14:20;;;;;;;4.10;3.80;;;9.60;99.90;;;;;;5072037;28;20881;-67
2023/04/11 05:16:47;;;;;;;4.65;4.25;;;9.60;99.90;;;;;;5073159;28;20285;-67
2023/04/11 05:19:14;;;;;;;5.07;4.57;;;9.70;99.90;;;;;;5072387;28;20286;-68
2023/04/11 05:21:41;;;;;;;4.45;4.05;;;9.70;99.90;;;;;;5076991;28;20238;-69
2023/04/11 05:24:08;;;;;;;4.35;3.95;;;9.90;99.90;;;;;;5074864;28;20206;-68
2023/04/11 05:26:36;;;;;;;4.68;4.38;;;9.90;99.90;;;;;;5078433;28;20228;-69
2023/04/11 05:29:03;;;;;;;5.22;4.82;;;9.90;99.90;;;;;;5081046;28;21772;-68
2023/04/11 05:31:30;;;;;;;4.60;4.30;;;9.90;99.90;;;;;;5079017;28;20256;-69
2023/04/11 05:33:57;;;;;;;4.63;4.30;;;9.90;99.90;;;;;;5081367;28;20905;-70
2023/04/11 05:36:24;;;;;;;4.03;3.72;;;10.00;99.90;;;;;;5082834;28;20203;-69
2023/04/11 05:38:51;;;;;;;5.72;5.13;;;10.10;99.90;;;;;;5080635;28;20706;-69
2023/04/11 05:41:18;;;;;;;5.40;4.90;;;10.10;99.90;;;;;;5080766;28;20313;-68
2023/04/11 05:43:47;;;;;;;5.15;4.75;;;10.20;99.90;;;;;;5086291;28;20289;-68
2023/04/11 05:46:13;;;;;;;4.88;4.47;;;10.30;99.90;;;;;;5088112;28;20198;-70
2023/04/11 05:48:41;;;;;;;4.93;4.53;;;10.30;99.90;;;;;;5101460;28;20209;-73
2023/04/11 05:51:08;;;;;;;4.85;4.50;;;10.40;99.90;;;;;;5100973;28;20358;-68
2023/04/11 05:53:35;;;;;;;5.05;4.65;;;10.40;99.90;;;;;;5095826;28;20197;-68
2023/04/11 05:56:02;;;;;;;5.95;5.50;;;10.50;99.90;;;;;;5093305;28;20362;-71
2023/04/11 05:58:29;;;;;;;5.00;4.60;;;10.40;99.90;;;;;;5099513;28;20232;-72
2023/04/11 06:00:59;;;;;;;4.82;4.43;;;10.20;99.90;;;;;;5088867;28;20424;-71
2023/04/11 06:03:26;;;;;;;5.20;4.80;;;10.20;99.90;;;;;;5093909;28;20236;-70
2023/04/11 06:05:53;;;;;;;4.63;4.22;;;10.30;99.90;;;;;;5090162;28;21104;-69
2023/04/11 06:08:21;;;;;;;4.45;4.15;;;10.60;99.90;;;;;;5082538;28;20312;-70
2023/04/11 06:10:48;;;;;;;4.43;4.13;;;10.90;99.90;;;;;;5082373;28;20655;-69
2023/04/11 06:13:15;;;;;;;4.85;4.45;;;11.20;99.90;;;;;;5084649;28;20589;-71
2023/04/11 06:15:41;;;;;;;4.57;4.28;;;11.50;99.90;;;;;;5086292;28;20201;-71
2023/04/11 06:18:11;;;;;;;5.00;4.60;;;11.70;99.90;;;;;;5077509;28;20246;-71
2023/04/11 06:20:38;;;;;;;4.47;4.07;;;11.90;99.90;;;;;;5075061;28;20216;-70
2023/04/11 06:23:05;;;;;;;4.85;4.13;;;12.00;99.90;;;;;;5071384;28;20275;-70
2023/04/11 06:25:32;;;;;;;4.50;4.20;;;12.10;99.90;;;;;;5069755;28;20681;-70
2023/04/11 06:27:59;;;;;;;4.88;4.47;;;12.00;99.90;;;;;;5071513;28;20352;-70
2023/04/11 06:30:26;;;;;;;5.50;5.00;;;11.90;99.90;;;;;;5072956;28;20230;-70
2023/04/11 06:32:53;;;;;;;4.85;4.45;;;11.80;99.90;;;;;;5070703;28;20284;-69
2023/04/11 06:35:23;;;;;;;4.18;3.88;;;11.60;99.90;;;;;;5075643;28;20293;-70
2023/04/11 06:37:50;;;;;;;4.70;4.38;;;11.60;99.90;;;;;;5070774;28;20642;-72
2023/04/11 06:40:18;;;;;;;5.13;4.68;;;11.50;99.90;;;;;;5074558;28;20308;-70
2023/04/11 06:42:46;;;;;;;5.15;4.75;;;11.40;99.90;;;;;;5071784;28;20605;-71
2023/04/11 06:45:13;;;;;;;5.78;4.75;;;11.20;99.90;;;;;;5073512;28;20285;-71
2023/04/11 06:47:40;;;;;;;5.47;4.80;;;11.10;99.90;;;;;;5071800;28;20218;-71
2023/04/11 06:50:08;;;;;;;5.25;4.80;;;11.10;99.90;;;;;;5069849;28;20293;-70
2023/04/11 06:52:37;;;;;;;5.90;5.40;;;11.00;99.90;;;;;;5071055;28;20282;-70
2023/04/11 06:55:06;;;;;;;5.53;5.05;;;10.80;99.90;;;;;;5075127;28;20292;-70
2023/04/11 06:57:33;;;;;;;5.88;5.28;;;10.70;99.90;;;;;;5071771;28;20482;-69
2023/04/11 07:00:00;;;;;;;5.70;5.20;;;10.60;99.90;;;;;;5071797;28;20201;-70
2023/04/11 07:02:27;;;;;;;5.97;5.40;;;10.60;99.90;;;;;;5073862;28;20208;-70
2023/04/11 07:04:54;;;;;;;5.97;5.38;;;10.70;99.90;;;;;;5074085;28;20742;-70
2023/04/11 07:07:21;;;;;;;6.30;5.75;;;10.80;99.90;;;;;;5069642;28;20258;-70
2023/04/11 07:09:50;;;;;;;5.35;4.85;;;10.90;99.90;;;;;;5074955;28;20193;-73
2023/04/11 07:12:17;;;;;;;5.32;4.65;;;11.10;99.90;;;;;;5071250;28;20189;-69
2023/04/11 07:14:44;;;;;;;5.35;4.88;;;11.20;99.90;;;;;;5073292;28;20205;-70
2023/04/11 07:17:11;;;;;;;5.05;4.65;;;11.40;99.90;;;;;;5070997;28;20750;-69
2023/04/11 07:19:37;;;;;;;5.05;4.65;;;11.50;99.90;;;;;;5074339;28;20293;-71
2023/04/11 07:22:04;;;;;;;5.50;5.00;;;11.60;99.90;;;;;;5071973;28;20823;-70
2023/04/11 07:24:31;;;;;;;6.20;5.60;;;11.70;99.90;;;;;;5071609;28;20483;-70
2023/04/11 07:27:00;;;;;;;6.40;5.80;;;11.70;99.90;;;;;;5071384;28;20268;-70
2023/04/11 07:29:28;;;;;;;5.53;5.03;;;11.70;99.90;;;;;;5067840;28;20198;-70
2023/04/11 07:31:55;;;;;;;6.65;5.50;;;11.70;99.90;;;;;;5072727;28;20198;-70
2023/04/11 07:34:22;;;;;;;5.68;5.18;;;11.60;99.90;;;;;;5071379;28;20287;-70
2023/04/11 07:36:49;;;;;;;5.43;4.80;;;11.60;99.90;;;;;;5074056;28;20198;-69
2023/04/11 07:39:16;;;;;;;6.68;4.63;;;11.70;99.90;;;;;;5069578;28;20226;-70
2023/04/11 07:41:43;;;;;;;6.03;5.53;;;11.90;99.90;;;;;;5073300;28;20321;-70
2023/04/11 07:44:12;;;;;;;6.50;5.50;;;12.20;99.90;;;;;;5071760;28;20198;-70
2023/04/11 07:46:38;;;;;;;6.15;5.55;;;12.40;99.90;;;;;;5073362;28;20194;-70
2023/04/11 07:49:06;;;;;;;5.35;4.85;;;12.70;99.90;;;;;;5070547;28;20318;-70
2023/04/11 07:51:33;;;;;;;6.05;5.55;;;13.20;99.90;;;;;;5074948;28;20731;-70
2023/04/11 07:53:59;;;;;;;5.70;5.20;;;13.50;99.90;;;;;;5073431;28;20390;-70
2023/04/11 07:56:26;;;;;;;5.85;5.30;;;13.70;99.90;;;;;;5072851;28;20236;-71
2023/04/11 07:58:54;;;;;;;5.22;4.72;;;13.70;99.90;;;;;;5071075;28;20312;-72
2023/04/11 08:01:24;;;;;;;6.60;5.93;;;13.80;99.90;;;;;;5072742;28;20253;-70
2023/04/11 08:03:52;;;;;;;5.20;4.80;;;14.00;99.90;;;;;;5075776;28;20699;-69
2023/04/11 08:06:19;;;;;;;6.05;5.43;;;14.00;99.90;;;;;;5068808;28;20193;-71
2023/04/11 08:08:47;;;;;;;6.38;5.72;;;14.00;99.90;;;;;;5073462;28;20610;-70
2023/04/11 08:11:14;;;;;;;6.20;5.60;;;13.80;99.90;;;;;;5070635;28;20499;-69
2023/04/11 08:13:42;;;;;;;5.65;5.25;;;13.70;99.90;;;;;;5070064;28;20436;-70
2023/04/11 08:16:10;;;;;;;6.13;5.63;;;13.60;99.90;;;;;;5071425;28;20725;-71
2023/04/11 08:18:40;;;;;;;6.53;5.50;;;13.60;99.90;;;;;;5069742;28;20715;-70
2023/04/11 08:21:09;;;;;;;5.47;4.97;;;13.60;99.90;;;;;;5068460;28;20233;-70
2023/04/11 08:23:40;;;;;;;6.60;5.88;;;13.80;99.90;;;;;;5070500;28;20807;-69
2023/04/11 08:26:08;;;;;;;5.35;4.85;;;13.90;99.90;;;;;;5069655;28;20292;-70
2023/04/11 08:28:35;;;;;;;5.50;5.05;;;14.00;99.90;;;;;;5070616;28;20320;-70
2023/04/11 08:31:02;;;;;;;5.18;4.68;;;14.20;99.90;;;;;;5067921;28;20255;-71
2023/04/11 08:33:29;;;;;;;6.28;5.75;;;14.50;99.90;;;;;;5074873;28;20202;-70
2023/04/11 08:35:58;;;;;;;6.20;5.65;;;14.80;99.90;;;;;;5074057;28;20197;-71
2023/04/11 08:38:25;;;;;;;6.43;5.80;;;15.00;99.90;;;;;;5075317;28;20276;-71
2023/04/11 08:40:52;;;;;;;6.38;5.78;;;15.20;99.90;;;;;;5073265;28;20221;-70
2023/04/11 08:43:19;;;;;;;5.32;4.82;;;15.20;99.90;;;;;;5071997;28;20293;-70
2023/04/11 08:45:46;;;;;;;7.30;6.30;;;15.30;99.90;;;;;;5067768;28;20285;-70
2023/04/11 08:48:13;;;;;;;5.82;5.32;;;15.50;99.90;;;;;;5071646;28;20217;-72
2023/04/11 08:50:40;;;;;;;5.97;5.47;;;15.40;99.90;;;;;;5073202;28;20253;-70
2023/04/11 08:53:09;;;;;;;6.30;5.38;;;15.40;99.90;;;;;;5070191;28;20672;-69
2023/04/11 08:55:44;;;;;;;6.18;5.57;;;15.60;99.90;;;;;;5073455;28;20251;-70
2023/04/11 08:58:11;;;;;;;5.63;5.13;;;15.90;99.90;;;;;;5068625;28;20224;-70
2023/04/11 09:00:38;;;;;;;6.35;5.60;;;16.20;99.90;;;;;;5073600;28;20586;-70
2023/04/11 09:03:06;;;;;;;6.20;5.70;;;16.30;99.90;;;;;;5075122;28;20572;-70
2023/04/11 09:05:35;;;;;;;6.00;5.40;;;16.40;99.90;;;;;;5069030;28;20582;-70
2023/04/11 09:08:06;;;;;;;6.22;5.72;;;16.50;99.90;;;;;;5069138;28;20223;-71
2023/04/11 09:10:35;;;;;;;6.15;5.57;;;16.30;99.90;;;;;;5068920;28;20206;-70
2023/04/11 09:13:18;;;;;;;8.98;6.03;;;16.20;99.90;;;;;;5070101;28;20296;-70
2023/04/11 09:15:45;;;;;;;6.25;5.65;;;16.20;99.90;;;;;;5071887;28;20511;-70
2023/04/11 09:18:30;;;;;;;5.97;5.35;;;16.20;99.90;;;;;;5072166;28;20301;-71
2023/04/11 09:21:00;;;;;;;5.88;5.38;;;16.00;99.90;;;;;;5068992;28;20305;-71
2023/04/11 09:23:27;;;;;;;6.03;5.50;;;16.10;99.90;;;;;;5073596;28;20206;-73
2023/04/11 09:25:56;;;;;;;6.63;6.03;;;16.20;99.90;;;;;;5074769;28;20206;-71
2023/04/11 09:28:24;;;;;;;6.40;5.90;;;16.30;99.90;;;;;;5074281;28;20325;-72
2023/04/11 09:30:52;;;;;;;5.50;5.00;;;16.20;99.90;;;;;;5070534;28;20378;-71
2023/04/11 09:33:21;;;;;;;6.13;5.63;;;16.20;99.90;;;;;;5073605;28;20338;-74
2023/04/11 09:35:49;;;;;;;6.28;5.68;;;16.70;99.90;;;;;;5072945;28;20739;-73
2023/04/11 09:38:28;;;;;;;8.40;5.85;;;16.90;99.90;;;;;;5076082;28;20296;-70
2023/04/11 09:40:57;;;;;;;6.22;5.72;;;17.10;99.90;;;;;;5068903;28;21536;-71
2023/04/11 09:43:24;;;;;;;6.18;4.93;;;17.20;99.90;;;;;;5071946;28;20292;-71
2023/04/11 09:46:09;;;;;;;5.70;5.20;;;17.30;99.90;;;;;;5068417;28;21070;-71
2023/04/11 09:48:37;;;;;;;8.63;7.18;;;17.40;99.90;;;;;;5073290;28;20721;-71
2023/04/11 09:51:05;;;;;;;13.60;9.10;;;17.60;99.90;;;;;;5071270;28;20568;-71
2023/04/11 09:53:35;;;;;;;7.00;6.40;;;17.50;99.90;;;;;;5075477;28;20778;-71
2023/04/11 09:56:05;;;;;;;7.35;6.10;;;17.40;99.90;;;;;;5068241;28;20610;-71
2023/04/11 09:58:33;;;;;;;8.55;7.45;;;17.40;99.90;;;;;;5072584;28;20221;-71
2023/04/11 10:01:01;;;;;;;7.75;5.90;;;17.20;99.90;;;;;;5069712;28;20197;-71
2023/04/11 10:03:29;;;;;;;7.90;6.55;;;17.30;99.90;;;;;;5071103;28;20640;-70
2023/04/11 10:05:57;;;;;;;7.85;7.05;;;17.30;99.90;;;;;;5070948;28;20198;-71
2023/04/11 10:08:31;;;;;;;6.63;6.03;;;17.30;99.90;;;;;;5072839;28;20491;-70
2023/04/11 10:10:59;;;;;;;6.28;5.68;;;17.30;99.90;;;;;;5070698;28;20209;-70
2023/04/11 10:13:45;;;;;;;6.40;5.80;;;17.20;99.90;;;;;;5070537;28;20290;-71
2023/04/11 10:16:14;;;;;;;6.32;5.72;;;17.30;99.90;;;;;;5069285;28;20332;-71
2023/04/11 10:19:17;;;;;;;5.75;5.25;;;17.50;99.90;;;;;;5073464;28;20315;-71
2023/04/11 10:21:45;;;;;;;5.05;4.65;;;17.70;99.90;;;;;;5069361;28;20751;-71
2023/04/11 10:24:13;;;;;;;5.78;5.28;;;18.10;99.90;;;;;;5071256;28;20198;-71
2023/04/11 10:26:51;;;;;;;7.03;6.28;;;18.30;99.90;;;;;;5071082;28;20257;-70
2023/04/11 10:29:48;;;;;;;7.22;6.30;;;18.20;99.90;;;;;;5072528;28;20929;-71
2023/04/11 10:32:25;;;;;;;6.30;5.70;;;17.70;99.90;;;;;;5070666;28;20251;-69
2023/04/11 10:35:23;;;;;;;6.35;5.75;;;17.70;99.90;;;;;;5071842;28;20229;-72
2023/04/11 10:37:50;;;;;;;6.63;6.03;;;17.70;99.90;;;;;;5070787;28;20309;-69
2023/04/11 10:40:19;;;;;;;6.18;5.57;;;17.70;99.90;;;;;;5071293;28;20210;-71
2023/04/11 10:42:47;;;;;;;7.88;6.88;;;17.80;99.90;;;;;;5075746;28;20309;-70
2023/04/11 10:45:20;;;;;;;6.72;5.97;;;17.80;99.90;;;;;;5072746;28;20280;-69
2023/04/11 10:48:10;;;;;;;6.78;6.25;;;17.70;99.90;;;;;;5069765;28;20676;-70
2023/04/11 10:50:44;;;;;;;6.53;5.93;;;17.70;99.90;;;;;;5069602;28;20209;-70
2023/04/11 10:53:36;;;;;;;6.30;5.70;;;17.70;99.90;;;;;;5070877;28;20202;-69
2023/04/11 10:56:03;;;;;;;7.15;6.50;;;17.80;99.90;;;;;;5071084;28;20288;-70
2023/04/11 10:58:38;;;;;;;6.80;6.10;;;17.90;99.90;;;;;;5071741;28;20261;-70
2023/04/11 11:01:18;;;;;;;7.10;6.40;;;17.90;99.90;;;;;;5064662;28;20200;-70
2023/04/11 11:03:52;;;;;;;6.22;5.70;;;18.00;99.90;;;;;;5069827;28;20705;-71
2023/04/11 11:06:20;;;;;;;6.85;6.25;;;18.10;99.90;;;;;;5071703;28;20204;-70
2023/04/11 11:08:47;;;;;;;6.10;5.60;;;18.10;99.90;;;;;;5069140;28;20225;-70
2023/04/11 11:11:16;;;;;;;7.93;7.20;;;18.10;99.90;;;;;;5068878;28;20328;-69
2023/04/11 11:13:44;;;;;;;7.78;6.97;;;18.00;99.90;;;;;;5070903;28;20198;-70
2023/04/11 11:16:16;;;;;;;8.25;7.22;;;18.00;99.90;;;;;;5068581;28;20290;-70
2023/04/11 11:18:46;;;;;;;6.00;5.50;;;17.80;99.90;;;;;;5072133;28;20221;-70
2023/04/11 11:21:15;;;;;;;6.30;5.78;;;17.80;99.90;;;;;;5070614;28;20200;-70
2023/04/11 11:23:56;;;;;;;6.88;6.28;;;17.80;99.90;;;;;;5072879;28;20285;-70
2023/04/11 11:26:35;;;;;;;6.97;6.38;;;17.90;99.90;;;;;;5073694;28;20252;-70
2023/04/11 11:29:04;;;;;;;6.85;6.25;;;18.00;99.90;;;;;;5070536;28;20907;-70
2023/04/11 11:31:38;;;;;;;6.90;6.30;;;18.20;99.90;;;;;;5068529;28;20209;-70
2023/04/11 11:34:05;;;;;;;7.05;6.45;;;18.50;99.90;;;;;;5069991;28;20282;-70
2023/04/11 11:36:34;;;;;;;6.68;6.15;;;18.70;99.90;;;;;;5072989;28;20815;-70
2023/04/11 11:39:04;;;;;;;7.88;7.18;;;18.80;99.90;;;;;;5072275;28;20313;-70
2023/04/11 11:41:31;;;;;;;7.20;6.50;;;19.00;99.90;;;;;;5074222;28;20201;-69
2023/04/11 11:43:58;;;;;;;8.48;6.97;;;19.10;99.90;;;;;;5073174;28;20201;-70
2023/04/11 11:46:28;;;;;;;9.52;7.63;;;19.20;99.90;;;;;;5069353;28;20297;-69
2023/04/11 11:49:01;;;;;;;8.60;7.80;;;19.10;99.90;;;;;;5071736;28;20327;-71
2023/04/11 11:51:39;;;;;;;9.10;7.35;;;18.90;99.90;;;;;;5069188;28;20202;-70
2023/04/11 11:54:08;;;;;;;7.68;6.97;;;19.10;99.90;;;;;;5065476;28;20243;-70
2023/04/11 11:56:35;;;;;;;6.38;5.75;;;19.30;99.90;;;;;;5067657;28;20202;-70
2023/04/11 11:59:03;;;;;;;6.50;5.90;;;19.60;99.90;;;;;;5070369;28;20217;-70
2023/04/11 12:01:31;;;;;;;6.55;5.95;;;20.00;99.90;;;;;;5071152;28;20315;-70
2023/04/11 12:04:00;;;;;;;5.32;4.93;;;20.30;99.90;;;;;;5070546;28;20194;-70
2023/04/11 12:06:31;;;;;;;6.68;6.07;;;20.60;99.90;;;;;;5072030;28;20683;-70
2023/04/11 12:09:02;;;;;;;6.88;6.20;;;20.90;99.90;;;;;;5067678;28;20332;-71
2023/04/11 12:11:36;;;;;;;6.47;5.93;;;21.20;99.90;;;;;;5071263;28;20202;-70
2023/04/11 12:14:03;;;;;;;7.97;7.20;;;21.30;99.30;;;;;;5068151;28;20852;-70
2023/04/11 12:16:30;;;;;;;7.00;6.35;;;21.20;98.10;;;;;;5069715;28;20206;-71
2023/04/11 12:19:00;;;;;;;9.40;7.82;;;21.00;99.00;;;;;;5071302;28;20252;-70
2023/04/11 12:21:26;;;;;;;8.30;7.50;;;21.00;97.70;;;;;;5068066;28;20598;-70
2023/04/11 12:23:54;;;;;;;8.07;7.28;;;20.70;98.20;;;;;;5071163;28;20317;-70
2023/04/11 12:26:21;;;;;;;9.02;8.07;;;20.60;97.50;;;;;;5071007;28;20217;-70
2023/04/11 12:28:49;;;;;;;8.02;7.00;;;20.20;97.70;;;;;;5070955;28;20993;-70
2023/04/11 12:31:16;;;;;;;7.72;6.93;;;20.30;97.80;;;;;;5069422;28;20226;-70
2023/04/11 12:33:43;;;;;;;7.18;6.57;;;20.40;98.00;;;;;;5073125;28;20204;-69
2023/04/11 12:36:12;;;;;;;8.57;7.45;;;20.70;98.30;;;;;;5071809;28;20229;-69
2023/04/11 12:38:39;;;;;;;6.43;5.82;;;20.80;97.60;;;;;;5075388;28;20857;-69
2023/04/11 12:41:06;;;;;;;7.35;6.63;;;20.60;97.30;;;;;;5075382;28;20275;-71
2023/04/11 12:43:33;;;;;;;8.45;7.22;;;20.80;97.20;;;;;;5079013;28;20301;-70
2023/04/11 12:46:00;;;;;;;8.43;7.63;;;20.80;96.40;;;;;;5077079;28;20279;-72
2023/04/11 12:48:27;;;;;;;8.13;6.97;;;20.60;96.80;;;;;;5075266;28;20323;-70
2023/04/11 12:50:54;;;;;;;8.45;7.63;;;20.50;96.20;;;;;;5078831;28;20356;-70
2023/04/11 12:53:22;;;;;;;9.68;7.30;;;20.50;97.20;;;;;;5077133;28;20234;-67
2023/04/11 12:55:49;;;;;;;8.25;7.45;;;20.50;97.00;;;;;;5072847;28;20205;-68